Time;durP1;ratioP1;P1;durP2;ratioP2;P2;SDS_P1;SDS_P2;PMS_P1;PMS_P2;Temp;Humidity;BMP_temperature;BMP_pressure;BME280_temperature;BME280_humidity;BME280_pressure;Samples;Min_cycle;Max_cycle;Signal;HPM_P1;HPM_P2
2022/10/25 00:01:30;;;;;;;20.50;7.28;;;;;;;;;;5111853;27;20059;-84
2022/10/25 00:03:57;;;;;;;15.38;7.22;;;;;;;;;;5100662;28;20103;-83
2022/10/25 00:06:23;;;;;;;19.52;6.93;;;;;;;;;;5100217;28;20052;-83
2022/10/25 00:08:50;;;;;;;15.10;7.22;;;;;;;;;;5119579;27;20154;-82
2022/10/25 00:11:27;;;;;;;18.15;7.60;;;;;;;;;;5131302;27;20051;-83
2022/10/25 00:13:55;;;;;;;15.57;6.88;;;;;;;;;;5104237;27;20056;-82
2022/10/25 00:16:23;;;;;;;19.40;7.22;;;;;;;;;;5106460;28;20048;-82
2022/10/25 00:18:51;;;;;;;17.40;7.18;;;;;;;;;;5092500;28;20048;-86
2022/10/25 00:21:18;;;;;;;19.02;8.20;;;;;;;;;;5092173;28;20056;-83
2022/10/25 00:23:45;;;;;;;20.27;7.53;;;;;;;;;;5079181;28;20057;-83
2022/10/25 00:26:11;;;;;;;13.02;7.00;;;;;;;;;;5070921;28;20052;-83
2022/10/25 00:28:37;;;;;;;18.88;7.70;;;;;;;;;;5071721;28;20057;-88
2022/10/25 00:31:05;;;;;;;17.42;7.63;;;;;;;;;;5070789;28;20045;-84
2022/10/25 00:33:32;;;;;;;19.95;7.78;;;;;;;;;;5077744;28;20052;-88
2022/10/25 00:36:09;;;;;;;16.45;7.40;;;;;;;;;;5092314;28;20114;-83
2022/10/25 00:38:36;;;;;;;17.95;6.82;;;;;;;;;;5091379;28;20056;-83
2022/10/25 00:41:03;;;;;;;21.73;7.03;;;;;;;;;;5074404;28;20080;-85
2022/10/25 00:43:33;;;;;;;17.70;7.60;;;;;;;;;;5084290;28;20516;-86
2022/10/25 00:46:00;;;;;;;;;;;;;;;;;;5072888;28;20049;-83
2022/10/25 00:48:26;;;;;;;18.95;7.53;;;;;;;;;;5070555;28;19935;-83
2022/10/25 00:50:53;;;;;;;16.30;6.97;;;;;;;;;;5086108;28;20037;-85
2022/10/25 00:53:21;;;;;;;15.05;7.07;;;;;;;;;;5088307;28;20048;-83
2022/10/25 00:55:52;;;;;;;17.90;7.00;;;;;;;;;;5090910;28;20053;-82
2022/10/25 00:58:19;;;;;;;17.90;6.93;;;;;;;;;;5089389;28;20052;-83
2022/10/25 01:00:46;;;;;;;22.27;7.13;;;;;;;;;;5076775;28;20048;-83
2022/10/25 01:03:14;;;;;;;19.88;7.50;;;;;;;;;;5073225;28;20060;-82
2022/10/25 01:05:41;;;;;;;18.35;7.20;;;;;;;;;;5092040;28;20063;-83
2022/10/25 01:08:07;;;;;;;17.52;6.90;;;;;;;;;;5077600;28;20057;-88
2022/10/25 01:10:33;;;;;;;13.85;6.88;;;;;;;;;;5084828;28;20033;-86
2022/10/25 01:13:00;;;;;;;17.98;7.00;;;;;;;;;;5073454;28;20544;-85
2022/10/25 01:15:32;;;;;;;20.02;7.45;;;;;;;;;;5086014;28;20055;-83
2022/10/25 01:18:01;;;;;;;20.85;7.38;;;;;;;;;;5086296;28;20056;-83
2022/10/25 01:20:36;;;;;;;16.67;6.53;;;;;;;;;;5084296;28;20431;-83
2022/10/25 01:23:29;;;;;;;22.25;7.60;;;;;;;;;;5087117;28;20055;-83
2022/10/25 01:26:28;;;;;;;16.63;6.63;;;;;;;;;;5042153;28;20167;-82
2022/10/25 01:28:57;;;;;;;19.98;7.10;;;;;;;;;;5039830;28;20526;-81
2022/10/25 01:31:28;;;;;;;25.05;6.55;;;;;;;;;;5082574;28;20056;-82
2022/10/25 01:34:05;;;;;;;16.05;6.32;;;;;;;;;;5087068;28;20078;-82
2022/10/25 01:36:50;;;;;;;19.08;6.82;;;;;;;;;;5067747;28;20053;-82
2022/10/25 01:39:19;;;;;;;17.88;6.15;;;;;;;;;;5070804;28;20049;-82
2022/10/25 01:41:57;;;;;;;17.83;6.35;;;;;;;;;;5085815;28;20522;-82
2022/10/25 01:44:31;;;;;;;27.15;6.70;;;;;;;;;;5087306;28;20044;-83
2022/10/25 01:47:14;;;;;;;19.17;6.28;;;;;;;;;;5089125;28;20052;-80
2022/10/25 01:49:46;;;;;;;20.95;6.57;;;;;;;;;;5074789;28;20061;-83
2022/10/25 01:52:13;;;;;;;22.48;6.47;;;;;;;;;;5083930;28;20056;-83
2022/10/25 01:54:40;;;;;;;19.25;5.68;;;;;;;;;;5099329;28;20059;-81
2022/10/25 01:57:25;;;;;;;20.50;6.57;;;;;;;;;;5107581;28;20056;-82
2022/10/25 01:59:57;;;;;;;20.27;6.03;;;;;;;;;;5096961;27;20926;-82
2022/10/25 02:02:38;;;;;;;21.10;5.40;;;;;;;;;;5080503;28;20107;-82
2022/10/25 02:05:24;;;;;;;23.50;6.40;;;;;;;;;;5070838;28;20068;-82
2022/10/25 02:08:03;;;;;;;19.52;5.60;;;;;;;;;;5067508;28;20061;-82
2022/10/25 02:10:34;;;;;;;18.48;5.70;;;;;;;;;;5074572;28;20900;-82
2022/10/25 02:13:03;;;;;;;17.13;5.22;;;;;;;;;;5069836;28;20053;-83
2022/10/25 02:15:29;;;;;;;20.00;5.10;;;;;;;;;;5088121;28;20057;-81
2022/10/25 02:18:01;;;;;;;25.98;5.55;;;;;;;;;;5088638;28;20060;-82
2022/10/25 02:20:30;;;;;;;24.83;5.50;;;;;;;;;;5085630;28;20874;-82
2022/10/25 02:22:57;;;;;;;19.67;4.70;;;;;;;;;;5083651;28;20059;-83
2022/10/25 02:25:24;;;;;;;18.95;4.97;;;;;;;;;;5100367;28;20494;-82
2022/10/25 02:27:52;;;;;;;18.95;5.45;;;;;;;;;;5108251;28;20051;-82
2022/10/25 02:30:19;;;;;;;18.17;5.07;;;;;;;;;;5101647;28;20056;-82
2022/10/25 02:32:45;;;;;;;20.27;5.22;;;;;;;;;;5091661;28;20056;-82
2022/10/25 02:35:14;;;;;;;21.80;5.10;;;;;;;;;;5072538;28;20056;-82
2022/10/25 02:37:40;;;;;;;18.85;4.72;;;;;;;;;;5070364;28;20060;-83
2022/10/25 02:40:08;;;;;;;21.88;4.60;;;;;;;;;;5076465;28;20049;-82
2022/10/25 02:42:34;;;;;;;21.08;4.78;;;;;;;;;;5108641;28;20052;-82
2022/10/25 02:45:00;;;;;;;15.50;4.80;;;;;;;;;;5084277;28;20052;-80
2022/10/25 02:47:26;;;;;;;18.50;4.80;;;;;;;;;;5091852;28;20053;-82
2022/10/25 02:49:53;;;;;;;18.27;4.43;;;;;;;;;;5085170;28;20061;-82
2022/10/25 02:52:19;;;;;;;22.70;4.95;;;;;;;;;;5081868;28;20419;-82
2022/10/25 02:54:45;;;;;;;16.45;5.28;;;;;;;;;;5071257;28;20056;-82
2022/10/25 02:57:11;;;;;;;17.10;4.63;;;;;;;;;;5070316;28;20072;-82
2022/10/25 02:59:38;;;;;;;17.38;4.53;;;;;;;;;;5056894;28;20136;-82
2022/10/25 03:02:04;;;;;;;18.52;5.63;;;;;;;;;;5090684;27;20156;-83
2022/10/25 03:04:30;;;;;;;17.75;5.35;;;;;;;;;;5070129;28;20083;-82
2022/10/25 03:06:57;;;;;;;17.77;5.85;;;;;;;;;;5071387;28;20048;-82
2022/10/25 03:09:23;;;;;;;19.23;5.10;;;;;;;;;;5083278;28;20522;-82
2022/10/25 03:11:49;;;;;;;15.25;4.97;;;;;;;;;;5095284;28;20048;-83
2022/10/25 03:14:15;;;;;;;19.50;5.45;;;;;;;;;;5072784;28;20049;-83
2022/10/25 03:16:42;;;;;;;14.32;4.93;;;;;;;;;;5084523;28;20060;-80
2022/10/25 03:19:08;;;;;;;20.20;5.82;;;;;;;;;;5069842;28;20136;-81
2022/10/25 03:21:34;;;;;;;20.90;5.43;;;;;;;;;;5093827;28;20510;-82
2022/10/25 03:24:06;;;;;;;17.33;5.35;;;;;;;;;;5086513;27;20084;-82
2022/10/25 03:26:32;;;;;;;19.05;5.05;;;;;;;;;;5070816;28;20060;-81
2022/10/25 03:28:59;;;;;;;18.52;5.30;;;;;;;;;;5078946;28;20088;-82
2022/10/25 03:31:25;;;;;;;22.13;5.03;;;;;;;;;;5097194;28;20059;-82
2022/10/25 03:33:51;;;;;;;20.05;4.80;;;;;;;;;;5111995;27;20044;-82
2022/10/25 03:36:17;;;;;;;18.02;4.68;;;;;;;;;;5087787;28;20789;-82
2022/10/25 03:38:44;;;;;;;14.35;4.57;;;;;;;;;;5084153;28;20055;-82
2022/10/25 03:41:10;;;;;;;16.33;5.03;;;;;;;;;;5089183;27;20059;-83
2022/10/25 03:43:36;;;;;;;19.88;5.60;;;;;;;;;;5090168;27;20056;-82
2022/10/25 03:46:03;;;;;;;16.90;5.07;;;;;;;;;;5090354;28;20513;-82
2022/10/25 03:48:29;;;;;;;19.92;5.30;;;;;;;;;;5087713;28;20064;-82
2022/10/25 03:50:55;;;;;;;20.92;5.07;;;;;;;;;;5089907;28;20057;-83
2022/10/25 03:53:21;;;;;;;16.15;5.18;;;;;;;;;;5110487;27;20577;-82
2022/10/25 03:55:48;;;;;;;21.80;5.07;;;;;;;;;;5111170;28;20110;-82
2022/10/25 03:58:15;;;;;;;19.58;4.55;;;;;;;;;;5090315;28;20053;-82
2022/10/25 04:00:41;;;;;;;18.13;5.32;;;;;;;;;;5087639;28;20503;-82
2022/10/25 04:03:08;;;;;;;16.38;5.32;;;;;;;;;;5099288;28;20045;-82
2022/10/25 04:05:34;;;;;;;20.77;5.05;;;;;;;;;;5081436;28;20056;-83
2022/10/25 04:08:00;;;;;;;22.23;5.63;;;;;;;;;;5074057;28;20057;-83
2022/10/25 04:10:26;;;;;;;18.98;5.25;;;;;;;;;;5085801;28;20052;-80
2022/10/25 04:12:53;;;;;;;18.35;5.50;;;;;;;;;;5106605;27;20522;-82
2022/10/25 04:15:20;;;;;;;14.95;5.18;;;;;;;;;;5069712;28;20053;-82
2022/10/25 04:17:47;;;;;;;20.75;5.43;;;;;;;;;;5069173;28;20052;-83
2022/10/25 04:20:14;;;;;;;22.48;5.95;;;;;;;;;;5086353;28;20063;-81
2022/10/25 04:22:40;;;;;;;25.15;6.88;;;;;;;;;;5085224;28;20059;-82
2022/10/25 04:25:07;;;;;;;20.55;6.90;;;;;;;;;;5089986;28;20056;-83
2022/10/25 04:27:33;;;;;;;22.85;6.75;;;;;;;;;;5089172;28;20060;-82
2022/10/25 04:29:59;;;;;;;19.67;6.10;;;;;;;;;;5084110;28;20056;-83
2022/10/25 04:32:26;;;;;;;19.40;6.45;;;;;;;;;;5075368;28;20053;-83
2022/10/25 04:34:52;;;;;;;18.35;6.43;;;;;;;;;;5069679;28;20523;-83
2022/10/25 04:37:18;;;;;;;17.45;7.57;;;;;;;;;;5069664;28;20601;-80
2022/10/25 04:39:45;;;;;;;16.73;6.90;;;;;;;;;;5088814;28;20504;-82
2022/10/25 04:42:11;;;;;;;18.23;7.10;;;;;;;;;;5090721;28;20078;-82
2022/10/25 04:44:37;;;;;;;19.08;5.93;;;;;;;;;;5081746;28;20435;-82
2022/10/25 04:47:04;;;;;;;17.70;6.10;;;;;;;;;;5086460;28;20055;-82
2022/10/25 04:49:30;;;;;;;22.98;5.55;;;;;;;;;;5089882;28;20596;-83
2022/10/25 04:51:56;;;;;;;21.73;5.60;;;;;;;;;;5088249;28;20057;-83
2022/10/25 04:54:23;;;;;;;18.95;5.55;;;;;;;;;;5088569;28;20064;-82
2022/10/25 04:56:49;;;;;;;20.17;6.05;;;;;;;;;;5070052;28;20079;-82
2022/10/25 04:59:15;;;;;;;15.60;4.82;;;;;;;;;;5074504;28;20056;-81
2022/10/25 05:01:42;;;;;;;23.17;4.57;;;;;;;;;;5092697;28;21885;-82
2022/10/25 05:04:08;;;;;;;18.33;4.97;;;;;;;;;;5086139;28;20064;-82
2022/10/25 05:06:34;;;;;;;19.15;4.45;;;;;;;;;;5092328;28;20522;-82
2022/10/25 05:09:02;;;;;;;17.35;4.75;;;;;;;;;;5102252;28;20052;-83
2022/10/25 05:11:29;;;;;;;14.00;4.22;;;;;;;;;;5085472;27;20515;-82
2022/10/25 05:13:55;;;;;;;18.88;4.40;;;;;;;;;;5090442;28;20085;-83
2022/10/25 05:16:23;;;;;;;14.48;4.28;;;;;;;;;;5089176;28;20048;-83
2022/10/25 05:18:50;;;;;;;19.10;4.45;;;;;;;;;;5086365;28;20049;-82
2022/10/25 05:21:17;;;;;;;18.23;4.68;;;;;;;;;;5081502;28;20511;-82
2022/10/25 05:23:43;;;;;;;17.17;4.38;;;;;;;;;;5082857;28;20052;-83
2022/10/25 05:26:11;;;;;;;22.88;4.55;;;;;;;;;;5079675;28;20372;-83
2022/10/25 05:28:38;;;;;;;15.10;4.25;;;;;;;;;;5078281;28;20095;-82
2022/10/25 05:31:06;;;;;;;10.57;4.30;;;;;;;;;;5081742;28;20048;-83
2022/10/25 05:33:32;;;;;;;11.32;4.25;;;;;;;;;;5077098;28;20076;-83
2022/10/25 05:35:59;;;;;;;18.90;4.45;;;;;;;;;;5076790;28;20486;-83
2022/10/25 05:38:26;;;;;;;15.93;4.75;;;;;;;;;;5089909;28;20041;-85
2022/10/25 05:41:03;;;;;;;18.13;4.10;;;;;;;;;;5082101;28;20079;-83
2022/10/25 07:14:38;;;;;;;19.83;7.22;;;;;;;;;;5004452;28;20051;-85
2022/10/25 07:17:04;;;;;;;15.07;6.65;;;;;;;;;;4986293;28;20054;-83
2022/10/25 07:19:30;;;;;;;16.58;6.80;;;;;;;;;;4992711;28;20172;-83
2022/10/25 07:21:57;;;;;;;22.92;6.57;;;;;;;;;;4983817;28;20054;-83
2022/10/25 07:24:23;;;;;;;15.95;6.88;;;;;;;;;;4968765;28;20067;-83
2022/10/25 07:26:49;;;;;;;16.02;6.30;;;;;;;;;;4989879;28;20063;-83
2022/10/25 07:29:16;;;;;;;21.92;6.43;;;;;;;;;;4989008;28;20066;-84
2022/10/25 07:31:45;;;;;;;15.57;5.43;;;;;;;;;;4991318;28;20845;-83
2022/10/25 07:34:13;;;;;;;17.38;6.95;;;;;;;;;;4976619;28;20043;-84
2022/10/25 07:36:39;;;;;;;17.55;6.20;;;;;;;;;;4973599;28;20055;-84
2022/10/25 07:39:06;;;;;;;15.10;6.22;;;;;;;;;;4990307;28;20051;-83
2022/10/25 07:41:32;;;;;;;15.50;7.13;;;;;;;;;;4981839;28;20056;-83
2022/10/25 07:43:58;;;;;;;24.08;7.40;;;;;;;;;;5001980;28;20059;-82
2022/10/25 07:46:25;;;;;;;15.50;6.97;;;;;;;;;;4995043;28;20062;-82
2022/10/25 07:48:51;;;;;;;13.07;7.13;;;;;;;;;;4976719;28;20540;-85
2022/10/25 07:51:18;;;;;;;18.88;7.53;;;;;;;;;;4966203;28;20093;-85
2022/10/25 07:53:44;;;;;;;20.98;7.57;;;;;;;;;;4974785;28;20081;-82
2022/10/25 07:56:12;;;;;;;21.35;7.55;;;;;;;;;;4991850;28;20051;-82
2022/10/25 07:58:44;;;;;;;24.27;7.93;;;;;;;;;;4990554;28;20065;-82
2022/10/25 08:01:11;;;;;;;18.35;7.47;;;;;;;;;;4994220;28;20114;-85
2022/10/25 08:03:38;;;;;;;14.75;7.38;;;;;;;;;;4975883;28;20046;-83
2022/10/25 08:06:07;;;;;;;16.95;7.22;;;;;;;;;;4976285;28;20130;-83
2022/10/25 08:08:35;;;;;;;16.48;6.28;;;;;;;;;;4972431;28;20323;-83
2022/10/25 08:11:07;;;;;;;12.65;5.97;;;;;;;;;;4990854;28;20993;-84
2022/10/25 08:13:34;;;;;;;16.77;6.68;;;;;;;;;;4989494;28;20055;-85
2022/10/25 08:16:00;;;;;;;17.63;6.93;;;;;;;;;;4972846;28;20039;-83
2022/10/25 08:18:27;;;;;;;16.80;6.80;;;;;;;;;;4982510;28;20082;-83
2022/10/25 08:20:54;;;;;;;15.68;6.85;;;;;;;;;;4970864;28;20057;-84
2022/10/25 08:23:30;;;;;;;15.10;6.43;;;;;;;;;;4972367;28;20057;-82
2022/10/25 08:25:57;;;;;;;19.33;7.60;;;;;;;;;;4991816;28;20474;-83
2022/10/25 08:28:23;;;;;;;17.27;7.25;;;;;;;;;;4987719;28;20055;-82
2022/10/25 08:30:51;;;;;;;21.67;6.95;;;;;;;;;;4988908;28;20063;-82
2022/10/25 08:33:18;;;;;;;19.55;7.45;;;;;;;;;;4968405;28;20051;-82
2022/10/25 08:35:44;;;;;;;15.73;7.07;;;;;;;;;;4969369;28;20054;-82
2022/10/25 08:38:10;;;;;;;14.60;7.43;;;;;;;;;;4987887;28;20058;-84
2022/10/25 08:40:55;;;;;;;16.00;6.95;;;;;;;;;;4969873;28;20051;-82
2022/10/25 08:43:25;;;;;;;11.90;7.05;;;;;;;;;;4971237;28;20038;-81
2022/10/25 08:45:57;;;;;;;16.92;7.32;;;;;;;;;;4999070;28;20058;-81
2022/10/25 08:48:27;;;;;;;17.30;7.68;;;;;;;;;;4983738;28;20055;-81
2022/10/25 08:50:57;;;;;;;22.20;7.70;;;;;;;;;;4986773;28;20481;-82
2022/10/25 08:53:26;;;;;;;16.33;7.40;;;;;;;;;;4983396;28;20059;-81
2022/10/25 08:55:53;;;;;;;16.45;7.78;;;;;;;;;;4978479;28;20062;-82
2022/10/25 08:58:46;;;;;;;18.20;7.50;;;;;;;;;;4959396;28;20051;-81
2022/10/25 09:01:14;;;;;;;16.77;7.80;;;;;;;;;;4966217;28;20532;-81
2022/10/25 09:03:41;;;;;;;14.45;7.38;;;;;;;;;;4981018;28;20069;-82
2022/10/25 09:06:07;;;;;;;19.25;7.28;;;;;;;;;;4968808;28;20074;-82
2022/10/25 09:08:52;;;;;;;14.73;8.10;;;;;;;;;;4985098;28;20182;-81
2022/10/25 09:11:37;;;;;;;14.73;7.72;;;;;;;;;;4968979;28;20059;-82
2022/10/25 09:14:06;;;;;;;12.82;7.63;;;;;;;;;;4969113;28;20050;-81
2022/10/25 09:16:33;;;;;;;14.77;7.75;;;;;;;;;;4970223;28;20505;-81
2022/10/25 09:18:59;;;;;;;13.98;7.47;;;;;;;;;;4987528;28;20063;-82
2022/10/25 09:21:52;;;;;;;16.65;7.72;;;;;;;;;;4986874;28;20063;-82
2022/10/25 09:24:20;;;;;;;16.10;8.38;;;;;;;;;;4964773;28;20552;-81
2022/10/25 09:26:53;;;;;;;17.70;7.90;;;;;;;;;;4970155;28;20055;-84
2022/10/25 09:29:41;;;;;;;19.17;8.60;;;;;;;;;;4968473;28;20047;-82
2022/10/25 09:32:14;;;;;;;16.55;8.25;;;;;;;;;;4964444;28;20062;-82
2022/10/25 09:34:41;;;;;;;17.95;8.35;;;;;;;;;;4963057;28;20621;-81
2022/10/25 09:37:16;;;;;;;14.32;8.48;;;;;;;;;;4967126;28;20065;-81
2022/10/25 09:39:49;;;;;;;14.27;8.43;;;;;;;;;;4985341;28;20146;-82
2022/10/25 09:42:19;;;;;;;20.25;8.02;;;;;;;;;;4983617;28;20066;-81
2022/10/25 09:45:00;;;;;;;17.50;9.10;;;;;;;;;;4974244;28;20063;-81
2022/10/25 09:47:44;;;;;;;15.18;8.00;;;;;;;;;;4981269;28;20062;-81
2022/10/25 09:50:20;;;;;;;18.33;8.50;;;;;;;;;;4964385;28;20055;-82
2022/10/25 09:53:05;;;;;;;13.80;7.93;;;;;;;;;;4963856;28;20055;-81
2022/10/25 09:55:47;;;;;;;13.88;8.05;;;;;;;;;;4966285;28;20883;-81
2022/10/25 09:58:32;;;;;;;14.95;7.72;;;;;;;;;;4969709;28;20517;-81
2022/10/25 10:01:11;;;;;;;11.95;6.65;;;;;;;;;;4978504;28;20059;-81
2022/10/25 10:03:37;;;;;;;12.55;6.60;;;;;;;;;;4980356;28;20059;-82
2022/10/25 10:06:23;;;;;;;20.05;6.45;;;;;;;;;;4967322;28;20948;-82
2022/10/25 10:08:50;;;;;;;15.32;7.38;;;;;;;;;;4983886;28;20891;-82
2022/10/25 10:11:17;;;;;;;16.27;6.88;;;;;;;;;;4968156;28;20078;-81
2022/10/25 10:13:46;;;;;;;16.13;6.63;;;;;;;;;;4958180;28;20058;-81
2022/10/25 10:16:12;;;;;;;14.13;7.28;;;;;;;;;;4985245;28;20066;-81
2022/10/25 10:18:40;;;;;;;14.40;7.20;;;;;;;;;;4975415;28;20054;-81
2022/10/25 10:21:06;;;;;;;15.10;7.68;;;;;;;;;;4968294;28;20050;-82
2022/10/25 10:23:47;;;;;;;19.70;7.47;;;;;;;;;;4980897;28;20115;-81
2022/10/25 10:26:13;;;;;;;;;;;;;;;;;;4968411;28;20066;-81
2022/10/25 10:28:44;;;;;;;14.75;6.80;;;;;;;;;;4982603;28;44856;-82
2022/10/25 10:31:10;;;;;;;13.95;6.57;;;;;;;;;;4968236;28;20261;-82
2022/10/25 10:33:37;;;;;;;14.10;7.25;;;;;;;;;;4984287;28;20066;-82
2022/10/25 10:36:20;;;;;;;14.27;7.20;;;;;;;;;;4965719;28;20091;-81
2022/10/25 10:38:46;;;;;;;15.10;6.93;;;;;;;;;;4968170;28;20061;-82
2022/10/25 10:41:23;;;;;;;13.00;7.30;;;;;;;;;;4987034;28;20078;-81
2022/10/25 10:43:49;;;;;;;12.68;6.68;;;;;;;;;;4985698;28;20568;-82
2022/10/25 10:46:18;;;;;;;17.50;7.68;;;;;;;;;;4963587;28;20046;-83
2022/10/25 10:48:51;;;;;;;15.00;7.03;;;;;;;;;;4980954;28;20063;-82
2022/10/25 10:51:19;;;;;;;13.05;6.80;;;;;;;;;;4986765;28;21316;-82
2022/10/25 10:54:13;;;;;;;17.55;7.43;;;;;;;;;;4976893;28;20055;-83
2022/10/25 10:56:39;;;;;;;17.33;6.50;;;;;;;;;;4981915;28;20192;-82
2022/10/25 10:59:23;;;;;;;16.05;7.47;;;;;;;;;;4976192;28;20904;-82
2022/10/25 11:01:49;;;;;;;11.82;7.07;;;;;;;;;;4968192;28;20055;-82
2022/10/25 11:04:16;;;;;;;14.20;7.38;;;;;;;;;;4970637;28;20050;-82
2022/10/25 11:06:43;;;;;;;17.65;7.45;;;;;;;;;;4987527;28;20051;-82
2022/10/25 11:09:16;;;;;;;16.00;8.00;;;;;;;;;;4969835;28;20568;-82
2022/10/25 11:11:43;;;;;;;16.48;7.05;;;;;;;;;;4976789;28;20059;-82
2022/10/25 11:14:12;;;;;;;16.27;6.80;;;;;;;;;;4990019;28;20070;-82
2022/10/25 11:16:39;;;;;;;12.48;6.07;;;;;;;;;;4972617;28;20292;-82
2022/10/25 11:19:17;;;;;;;12.93;6.57;;;;;;;;;;4989574;28;20055;-82
2022/10/25 11:21:58;;;;;;;10.45;6.50;;;;;;;;;;4986061;28;20046;-83
2022/10/25 11:24:50;;;;;;;11.45;5.95;;;;;;;;;;4989326;28;20437;-81
2022/10/25 11:27:17;;;;;;;12.13;5.78;;;;;;;;;;4960817;28;20077;-82
2022/10/25 11:29:52;;;;;;;14.93;6.60;;;;;;;;;;4986755;28;20142;-82
2022/10/25 11:32:38;;;;;;;11.10;6.13;;;;;;;;;;4989258;28;20054;-82
2022/10/25 11:35:37;;;;;;;11.25;5.78;;;;;;;;;;4987749;28;20054;-82
2022/10/25 11:38:10;;;;;;;12.30;5.63;;;;;;;;;;4953696;28;20054;-82
2022/10/25 11:40:43;;;;;;;15.00;5.57;;;;;;;;;;4990996;28;20047;-82
2022/10/25 11:43:30;;;;;;;11.57;5.40;;;;;;;;;;4973659;28;20059;-82
2022/10/25 11:46:12;;;;;;;10.38;5.65;;;;;;;;;;4989395;28;20059;-83
2022/10/25 11:48:41;;;;;;;10.98;5.63;;;;;;;;;;4990278;28;20055;-82
2022/10/25 11:51:08;;;;;;;11.30;4.80;;;;;;;;;;4964885;28;20057;-83
2022/10/25 11:53:37;;;;;;;10.90;5.47;;;;;;;;;;4983147;28;20058;-82
2022/10/25 11:56:07;;;;;;;43.20;6.47;;;;;;;;;;4988214;28;20047;-82
2022/10/25 11:58:39;;;;;;;12.43;5.43;;;;;;;;;;4983191;28;20055;-83
2022/10/25 12:01:24;;;;;;;10.48;5.53;;;;;;;;;;4952315;28;20062;-82
2022/10/25 12:03:59;;;;;;;12.32;5.10;;;;;;;;;;4984594;28;20118;-83
2022/10/25 12:06:40;;;;;;;12.30;5.70;;;;;;;;;;4989612;28;20066;-82
2022/10/25 12:09:10;;;;;;;9.07;5.55;;;;;;;;;;4979854;28;20054;-82
2022/10/25 12:11:39;;;;;;;10.05;6.07;;;;;;;;;;4989029;28;20939;-83
2022/10/25 12:14:09;;;;;;;8.68;5.07;;;;;;;;;;4971572;28;20051;-83
2022/10/25 12:16:36;;;;;;;11.73;5.68;;;;;;;;;;4983798;28;20054;-82
2022/10/25 12:19:07;;;;;;;9.35;5.85;;;;;;;;;;4985514;28;20089;-82
2022/10/25 12:21:41;;;;;;;12.13;6.20;;;;;;;;;;4985546;28;20054;-82
2022/10/25 12:24:13;;;;;;;10.48;5.70;;;;;;;;;;4989545;28;20046;-83
2022/10/25 12:26:40;;;;;;;11.77;6.10;;;;;;;;;;4971044;28;20118;-82
2022/10/25 12:29:16;;;;;;;9.60;5.93;;;;;;;;;;4969403;28;20561;-82
2022/10/25 12:31:53;;;;;;;11.43;6.20;;;;;;;;;;4977399;28;20101;-83
2022/10/25 12:34:26;;;;;;;13.02;6.03;;;;;;;;;;4980788;28;20058;-83
2022/10/25 12:36:59;;;;;;;13.40;7.22;;;;;;;;;;4969286;28;20541;-82
2022/10/25 12:39:39;;;;;;;18.23;7.93;;;;;;;;;;4971690;28;20867;-82
2022/10/25 12:42:13;;;;;;;16.37;7.83;;;;;;;;;;4971508;28;20035;-82
2022/10/25 12:44:58;;;;;;;15.45;7.78;;;;;;;;;;4984810;28;20059;-82
2022/10/25 12:47:27;;;;;;;11.63;7.47;;;;;;;;;;4984056;28;20418;-82
2022/10/25 12:49:59;;;;;;;14.30;7.30;;;;;;;;;;4985990;28;20050;-82
2022/10/25 12:52:34;;;;;;;15.38;7.32;;;;;;;;;;4984799;28;20042;-83
2022/10/25 12:55:03;;;;;;;11.85;7.18;;;;;;;;;;4971089;28;20051;-83
2022/10/25 12:57:30;;;;;;;13.38;7.03;;;;;;;;;;4986789;28;20051;-82
2022/10/25 13:00:07;;;;;;;12.85;7.07;;;;;;;;;;4988727;28;20139;-82
2022/10/25 13:02:52;;;;;;;11.95;6.53;;;;;;;;;;4972916;28;20077;-82
2022/10/25 13:05:18;;;;;;;10.57;6.57;;;;;;;;;;4969803;28;20069;-82
2022/10/25 13:07:47;;;;;;;13.65;6.57;;;;;;;;;;4987979;28;20101;-83
2022/10/25 13:10:42;;;;;;;10.93;6.47;;;;;;;;;;4964320;28;20070;-83
2022/10/25 13:13:16;;;;;;;13.23;7.10;;;;;;;;;;4969077;28;20070;-83
2022/10/25 13:15:49;;;;;;;13.70;7.55;;;;;;;;;;4970838;28;20096;-83
2022/10/25 13:18:38;;;;;;;14.98;7.40;;;;;;;;;;4972270;28;20054;-83
2022/10/25 13:21:11;;;;;;;14.38;7.25;;;;;;;;;;4969531;28;20059;-83
2022/10/25 13:23:54;;;;;;;15.85;7.25;;;;;;;;;;4970963;28;20063;-83
2022/10/25 13:26:24;;;;;;;15.05;7.70;;;;;;;;;;4987623;28;20065;-82
2022/10/25 13:29:03;;;;;;;15.82;7.55;;;;;;;;;;4970046;28;20058;-82
2022/10/25 13:31:30;;;;;;;12.05;7.20;;;;;;;;;;4969122;28;20055;-83
2022/10/25 13:34:11;;;;;;;14.82;6.55;;;;;;;;;;4987345;28;20049;-83
2022/10/25 13:37:01;;;;;;;11.32;6.10;;;;;;;;;;4978288;28;20114;-83
2022/10/25 13:39:35;;;;;;;16.45;6.82;;;;;;;;;;4964951;28;20853;-82
2022/10/25 13:42:13;;;;;;;13.75;6.80;;;;;;;;;;4986737;28;20149;-82
2022/10/25 13:45:07;;;;;;;14.73;6.82;;;;;;;;;;4955254;28;20075;-83
2022/10/25 13:47:39;;;;;;;12.50;7.00;;;;;;;;;;4961339;28;20059;-83
2022/10/25 13:50:25;;;;;;;13.13;6.50;;;;;;;;;;4969418;28;20526;-82
2022/10/25 13:52:52;;;;;;;15.63;7.00;;;;;;;;;;4983099;28;20058;-84
2022/10/25 13:55:20;;;;;;;15.80;6.43;;;;;;;;;;4972605;28;20066;-82
2022/10/25 13:57:56;;;;;;;9.30;5.90;;;;;;;;;;4972385;28;20064;-83
2022/10/25 14:00:25;;;;;;;10.43;5.82;;;;;;;;;;4987940;28;20051;-83
2022/10/25 14:03:01;;;;;;;13.93;6.15;;;;;;;;;;4992260;28;20046;-83
2022/10/25 14:05:46;;;;;;;12.23;6.38;;;;;;;;;;4982778;28;20051;-83
2022/10/25 14:08:19;;;;;;;11.07;6.38;;;;;;;;;;4986710;28;20055;-83
2022/10/25 14:10:47;;;;;;;15.65;6.72;;;;;;;;;;4975447;28;20051;-83
2022/10/25 14:13:18;;;;;;;10.90;6.68;;;;;;;;;;4979081;28;20070;-83
2022/10/25 14:15:48;;;;;;;13.40;6.43;;;;;;;;;;4984081;28;20059;-82
2022/10/25 14:18:16;;;;;;;11.10;5.75;;;;;;;;;;4980719;28;20126;-83
2022/10/25 14:20:47;;;;;;;11.43;5.75;;;;;;;;;;4973832;28;20059;-83
2022/10/25 14:23:16;;;;;;;10.35;6.28;;;;;;;;;;5001020;28;20062;-83
2022/10/25 14:25:54;;;;;;;12.63;5.95;;;;;;;;;;4986027;28;20074;-83
2022/10/25 14:28:28;;;;;;;11.75;5.85;;;;;;;;;;4985188;28;20058;-82
2022/10/25 14:30:55;;;;;;;9.73;5.90;;;;;;;;;;4986643;28;20588;-83
2022/10/25 14:33:25;;;;;;;11.20;5.43;;;;;;;;;;4985447;28;20055;-83
2022/10/25 14:36:14;;;;;;;13.40;5.22;;;;;;;;;;5002556;28;20044;-83
2022/10/25 14:38:51;;;;;;;10.93;5.60;;;;;;;;;;4977165;28;20093;-83
2022/10/25 14:41:22;;;;;;;10.68;5.20;;;;;;;;;;4982665;28;20046;-83
2022/10/25 14:43:48;;;;;;;13.27;5.20;;;;;;;;;;4979386;28;20047;-83
2022/10/25 14:46:16;;;;;;;10.43;5.22;;;;;;;;;;4980342;28;20124;-83
2022/10/25 14:48:46;;;;;;;14.68;5.70;;;;;;;;;;4984238;28;20956;-84
2022/10/25 14:51:13;;;;;;;10.55;4.45;;;;;;;;;;5000961;28;20058;-83
2022/10/25 14:53:48;;;;;;;10.18;4.82;;;;;;;;;;5002131;28;20164;-82
2022/10/25 14:56:18;;;;;;;13.95;4.07;;;;;;;;;;4981671;28;20054;-83
2022/10/25 14:58:45;;;;;;;9.68;4.00;;;;;;;;;;4998874;28;20539;-83
2022/10/25 15:01:11;;;;;;;11.52;5.10;;;;;;;;;;4994375;28;20050;-83
2022/10/25 15:03:42;;;;;;;10.70;4.55;;;;;;;;;;4983378;28;20062;-82
2022/10/25 15:06:08;;;;;;;;;;;;;;;;;;4983826;28;20062;-82
2022/10/25 15:08:37;;;;;;;9.93;4.25;;;;;;;;;;5000173;28;48795;-82
2022/10/25 15:11:05;;;;;;;11.63;4.50;;;;;;;;;;4979695;28;20065;-83
2022/10/25 15:13:42;;;;;;;11.07;4.40;;;;;;;;;;4974792;28;20142;-84
2022/10/25 15:16:28;;;;;;;9.52;4.50;;;;;;;;;;4979998;28;20051;-82
2022/10/25 15:19:07;;;;;;;8.30;4.40;;;;;;;;;;4983320;28;20050;-83
2022/10/25 15:21:38;;;;;;;10.35;4.32;;;;;;;;;;4970736;28;20039;-83
2022/10/25 15:24:04;;;;;;;;;;;;;;;;;;4974335;28;20500;-84
2022/10/25 15:26:30;;;;;;;10.20;4.93;;;;;;;;;;4966913;28;46619;-84
2022/10/25 15:29:03;;;;;;;11.88;5.72;;;;;;;;;;4987877;28;20066;-85
2022/10/25 15:31:30;;;;;;;8.32;4.78;;;;;;;;;;4991471;28;20875;-84
2022/10/25 15:33:58;;;;;;;9.95;5.28;;;;;;;;;;4987792;28;20906;-84
2022/10/25 15:36:26;;;;;;;14.43;5.38;;;;;;;;;;4985982;28;20051;-86
2022/10/25 15:38:53;;;;;;;11.27;5.20;;;;;;;;;;4971544;28;20063;-86
2022/10/25 15:41:35;;;;;;;11.40;5.50;;;;;;;;;;4973489;28;20892;-85
2022/10/25 15:44:01;;;;;;;14.50;5.38;;;;;;;;;;4974163;28;20091;-86
2022/10/25 15:46:32;;;;;;;12.25;4.88;;;;;;;;;;4977376;28;20109;-85
2022/10/25 15:48:59;;;;;;;11.73;5.03;;;;;;;;;;4982985;28;20148;-84
2022/10/25 15:51:26;;;;;;;12.30;4.18;;;;;;;;;;4970717;28;20059;-84
2022/10/25 15:53:56;;;;;;;14.57;3.65;;;;;;;;;;4965854;28;20074;-85
2022/10/25 15:56:23;;;;;;;9.18;4.13;;;;;;;;;;4970026;28;20506;-84
2022/10/25 15:58:50;;;;;;;8.45;4.05;;;;;;;;;;4973542;28;20062;-84
2022/10/25 16:01:16;;;;;;;8.45;4.10;;;;;;;;;;4999464;28;20513;-83
2022/10/25 16:03:43;;;;;;;11.00;4.53;;;;;;;;;;4975464;28;20059;-85
2022/10/25 16:06:11;;;;;;;11.70;3.88;;;;;;;;;;4974957;28;20086;-84
2022/10/25 16:08:37;;;;;;;10.25;4.38;;;;;;;;;;4974660;28;20114;-83
2022/10/25 16:11:10;;;;;;;8.95;3.70;;;;;;;;;;4973831;28;20107;-84
2022/10/25 16:13:37;;;;;;;9.45;3.92;;;;;;;;;;4990963;28;20051;-83
2022/10/25 16:16:03;;;;;;;12.00;4.38;;;;;;;;;;4970081;28;20129;-84
2022/10/25 16:18:50;;;;;;;10.32;4.78;;;;;;;;;;4979024;28;20054;-83
2022/10/25 16:21:18;;;;;;;13.25;5.93;;;;;;;;;;4973600;28;20089;-83
2022/10/25 16:23:45;;;;;;;13.25;5.82;;;;;;;;;;4973072;28;20059;-83